sensor_id;sensor_type;location;lat;lon;timestamp;temperature;humidity
52203;DHT22;38173;52.850;6.970;2022-08-01T00:01:24;18.00;99.90
52203;DHT22;38173;52.850;6.970;2022-08-01T00:03:50;18.00;99.90
52203;DHT22;38173;52.850;6.970;2022-08-01T00:06:16;18.00;99.90
52203;DHT22;38173;52.850;6.970;2022-08-01T00:08:41;18.00;99.90
52203;DHT22;38173;52.850;6.970;2022-08-01T00:11:07;18.00;99.90
52203;DHT22;38173;52.850;6.970;2022-08-01T00:13:35;18.00;99.90
52203;DHT22;38173;52.850;6.970;2022-08-01T00:16:01;18.00;99.90
52203;DHT22;38173;52.850;6.970;2022-08-01T00:18:26;18.00;99.90
52203;DHT22;38173;52.850;6.970;2022-08-01T00:20:52;18.00;99.90
52203;DHT22;38173;52.850;6.970;2022-08-01T00:23:18;17.90;99.90
52203;DHT22;38173;52.850;6.970;2022-08-01T00:25:43;17.90;99.90
52203;DHT22;38173;52.850;6.970;2022-08-01T00:28:09;17.90;99.90
52203;DHT22;38173;52.850;6.970;2022-08-01T00:30:35;18.00;99.90
52203;DHT22;38173;52.850;6.970;2022-08-01T00:33:02;18.00;99.90
52203;DHT22;38173;52.850;6.970;2022-08-01T00:35:27;18.00;99.90
52203;DHT22;38173;52.850;6.970;2022-08-01T00:37:53;17.90;99.90
52203;DHT22;38173;52.850;6.970;2022-08-01T00:40:19;17.90;99.90
52203;DHT22;38173;52.850;6.970;2022-08-01T00:42:44;17.90;99.90
52203;DHT22;38173;52.850;6.970;2022-08-01T00:45:11;17.90;99.90
52203;DHT22;38173;52.850;6.970;2022-08-01T00:47:37;17.90;99.90
52203;DHT22;38173;52.850;6.970;2022-08-01T00:50:07;17.80;99.90
52203;DHT22;38173;52.850;6.970;2022-08-01T00:52:33;17.80;99.90
52203;DHT22;38173;52.850;6.970;2022-08-01T00:54:59;17.80;99.90
52203;DHT22;38173;52.850;6.970;2022-08-01T00:57:25;17.80;99.90
52203;DHT22;38173;52.850;6.970;2022-08-01T00:59:52;17.80;99.90
52203;DHT22;38173;52.850;6.970;2022-08-01T01:02:18;17.80;99.90
52203;DHT22;38173;52.850;6.970;2022-08-01T01:04:44;17.80;99.90
52203;DHT22;38173;52.850;6.970;2022-08-01T01:07:21;17.80;99.90
52203;DHT22;38173;52.850;6.970;2022-08-01T01:09:52;17.80;99.90
52203;DHT22;38173;52.850;6.970;2022-08-01T01:12:35;17.80;99.90
52203;DHT22;38173;52.850;6.970;2022-08-01T01:15:06;17.80;99.90
52203;DHT22;38173;52.850;6.970;2022-08-01T01:17:54;17.80;99.90
52203;DHT22;38173;52.850;6.970;2022-08-01T01:20:23;17.70;99.90
52203;DHT22;38173;52.850;6.970;2022-08-01T01:30:29;17.70;99.90
52203;DHT22;38173;52.850;6.970;2022-08-01T01:33:01;17.70;99.90
52203;DHT22;38173;52.850;6.970;2022-08-01T01:35:31;17.70;99.90
52203;DHT22;38173;52.850;6.970;2022-08-01T01:38:01;17.70;99.90
52203;DHT22;38173;52.850;6.970;2022-08-01T01:40:30;17.60;99.90
52203;DHT22;38173;52.850;6.970;2022-08-01T01:42:56;17.60;99.90
52203;DHT22;38173;52.850;6.970;2022-08-01T01:45:26;17.60;99.90
52203;DHT22;38173;52.850;6.970;2022-08-01T01:47:53;17.60;99.90
52203;DHT22;38173;52.850;6.970;2022-08-01T01:50:23;17.60;99.90
52203;DHT22;38173;52.850;6.970;2022-08-01T01:52:51;17.60;99.90
52203;DHT22;38173;52.850;6.970;2022-08-01T01:55:19;17.60;99.90
52203;DHT22;38173;52.850;6.970;2022-08-01T01:57:47;17.60;99.90
52203;DHT22;38173;52.850;6.970;2022-08-01T02:00:14;17.60;99.90
52203;DHT22;38173;52.850;6.970;2022-08-01T02:02:41;17.60;99.90
52203;DHT22;38173;52.850;6.970;2022-08-01T02:05:10;17.60;99.90
52203;DHT22;38173;52.850;6.970;2022-08-01T02:07:38;17.60;99.90
52203;DHT22;38173;52.850;6.970;2022-08-01T02:10:05;17.60;99.90
52203;DHT22;38173;52.850;6.970;2022-08-01T02:12:38;17.60;99.90
52203;DHT22;38173;52.850;6.970;2022-08-01T02:15:06;17.70;99.90
52203;DHT22;38173;52.850;6.970;2022-08-01T02:17:34;17.60;99.90
52203;DHT22;38173;52.850;6.970;2022-08-01T02:20:05;17.70;99.90
52203;DHT22;38173;52.850;6.970;2022-08-01T02:22:53;17.60;99.90
52203;DHT22;38173;52.850;6.970;2022-08-01T02:25:33;17.60;99.90
52203;DHT22;38173;52.850;6.970;2022-08-01T02:28:04;17.70;99.90
52203;DHT22;38173;52.850;6.970;2022-08-01T02:30:34;17.60;99.90
52203;DHT22;38173;52.850;6.970;2022-08-01T02:33:06;17.60;99.90
52203;DHT22;38173;52.850;6.970;2022-08-01T02:35:37;17.60;99.90
52203;DHT22;38173;52.850;6.970;2022-08-01T02:38:05;17.60;99.90
52203;DHT22;38173;52.850;6.970;2022-08-01T02:40:33;17.60;99.90
52203;DHT22;38173;52.850;6.970;2022-08-01T02:43:03;17.60;99.90
52203;DHT22;38173;52.850;6.970;2022-08-01T02:45:31;17.60;99.90
52203;DHT22;38173;52.850;6.970;2022-08-01T02:48:03;17.50;99.90
52203;DHT22;38173;52.850;6.970;2022-08-01T02:50:32;17.50;99.90
52203;DHT22;38173;52.850;6.970;2022-08-01T02:53:00;17.50;99.90
52203;DHT22;38173;52.850;6.970;2022-08-01T02:55:28;17.50;99.90
52203;DHT22;38173;52.850;6.970;2022-08-01T02:57:55;17.50;99.90
52203;DHT22;38173;52.850;6.970;2022-08-01T03:00:22;17.50;99.90
52203;DHT22;38173;52.850;6.970;2022-08-01T03:02:49;17.50;99.90
52203;DHT22;38173;52.850;6.970;2022-08-01T03:05:17;17.50;99.90
52203;DHT22;38173;52.850;6.970;2022-08-01T03:07:43;17.50;99.90
52203;DHT22;38173;52.850;6.970;2022-08-01T03:10:10;17.40;99.90
52203;DHT22;38173;52.850;6.970;2022-08-01T03:12:38;17.40;99.90
52203;DHT22;38173;52.850;6.970;2022-08-01T03:15:05;17.40;99.90
52203;DHT22;38173;52.850;6.970;2022-08-01T03:17:32;17.40;99.90
52203;DHT22;38173;52.850;6.970;2022-08-01T03:20:00;17.40;99.90
52203;DHT22;38173;52.850;6.970;2022-08-01T03:22:29;17.40;99.90
52203;DHT22;38173;52.850;6.970;2022-08-01T03:24:57;17.30;99.90
52203;DHT22;38173;52.850;6.970;2022-08-01T03:27:25;17.30;99.90
52203;DHT22;38173;52.850;6.970;2022-08-01T03:29:52;17.30;99.90
52203;DHT22;38173;52.850;6.970;2022-08-01T03:32:20;17.30;99.90
52203;DHT22;38173;52.850;6.970;2022-08-01T03:34:47;17.30;99.90
52203;DHT22;38173;52.850;6.970;2022-08-01T03:37:28;17.30;99.90
52203;DHT22;38173;52.850;6.970;2022-08-01T03:40:02;17.30;99.90
52203;DHT22;38173;52.850;6.970;2022-08-01T03:42:33;17.20;99.90
52203;DHT22;38173;52.850;6.970;2022-08-01T03:45:05;17.20;99.90
52203;DHT22;38173;52.850;6.970;2022-08-01T03:47:34;17.20;99.90
52203;DHT22;38173;52.850;6.970;2022-08-01T03:50:04;17.10;99.90
52203;DHT22;38173;52.850;6.970;2022-08-01T03:52:31;17.10;99.90
52203;DHT22;38173;52.850;6.970;2022-08-01T03:55:05;17.10;99.90
52203;DHT22;38173;52.850;6.970;2022-08-01T03:57:32;17.10;99.90
52203;DHT22;38173;52.850;6.970;2022-08-01T03:59:59;17.00;99.90
52203;DHT22;38173;52.850;6.970;2022-08-01T04:02:26;17.00;99.90
52203;DHT22;38173;52.850;6.970;2022-08-01T04:04:53;17.00;99.90
52203;DHT22;38173;52.850;6.970;2022-08-01T04:09:49;17.00;99.90
52203;DHT22;38173;52.850;6.970;2022-08-01T04:12:15;17.00;99.90
52203;DHT22;38173;52.850;6.970;2022-08-01T04:14:40;16.90;99.90
52203;DHT22;38173;52.850;6.970;2022-08-01T04:17:06;16.90;99.90
52203;DHT22;38173;52.850;6.970;2022-08-01T04:19:31;17.00;99.90
52203;DHT22;38173;52.850;6.970;2022-08-01T04:21:57;17.00;99.90
52203;DHT22;38173;52.850;6.970;2022-08-01T04:24:24;16.90;99.90
52203;DHT22;38173;52.850;6.970;2022-08-01T04:26:54;16.90;99.90
52203;DHT22;38173;52.850;6.970;2022-08-01T04:29:20;17.00;99.90
52203;DHT22;38173;52.850;6.970;2022-08-01T04:31:48;17.00;99.90
52203;DHT22;38173;52.850;6.970;2022-08-01T04:34:17;17.00;99.90
52203;DHT22;38173;52.850;6.970;2022-08-01T04:36:45;17.00;99.90
52203;DHT22;38173;52.850;6.970;2022-08-01T04:39:13;17.00;99.90
52203;DHT22;38173;52.850;6.970;2022-08-01T04:41:40;17.00;99.90
52203;DHT22;38173;52.850;6.970;2022-08-01T04:44:07;17.00;99.90
52203;DHT22;38173;52.850;6.970;2022-08-01T04:46:33;17.00;99.90
52203;DHT22;38173;52.850;6.970;2022-08-01T04:48:59;17.00;99.90
52203;DHT22;38173;52.850;6.970;2022-08-01T04:51:26;17.00;99.90
52203;DHT22;38173;52.850;6.970;2022-08-01T04:53:51;17.00;99.90
52203;DHT22;38173;52.850;6.970;2022-08-01T04:56:18;16.90;99.90
52203;DHT22;38173;52.850;6.970;2022-08-01T04:58:46;16.90;99.90
52203;DHT22;38173;52.850;6.970;2022-08-01T05:01:13;16.90;99.90
52203;DHT22;38173;52.850;6.970;2022-08-01T05:03:39;17.00;99.90
52203;DHT22;38173;52.850;6.970;2022-08-01T05:06:05;17.00;99.90
52203;DHT22;38173;52.850;6.970;2022-08-01T05:08:31;17.00;99.90
52203;DHT22;38173;52.850;6.970;2022-08-01T05:10:56;17.00;99.90
52203;DHT22;38173;52.850;6.970;2022-08-01T05:13:22;17.00;99.90
52203;DHT22;38173;52.850;6.970;2022-08-01T05:15:48;17.10;99.90
52203;DHT22;38173;52.850;6.970;2022-08-01T05:18:13;17.00;99.90
52203;DHT22;38173;52.850;6.970;2022-08-01T05:20:40;17.00;99.90
52203;DHT22;38173;52.850;6.970;2022-08-01T05:23:07;17.10;99.90
52203;DHT22;38173;52.850;6.970;2022-08-01T05:25:32;17.10;99.90
52203;DHT22;38173;52.850;6.970;2022-08-01T05:27:59;17.00;99.90
52203;DHT22;38173;52.850;6.970;2022-08-01T05:30:25;17.00;99.90
52203;DHT22;38173;52.850;6.970;2022-08-01T05:32:51;17.00;99.90
52203;DHT22;38173;52.850;6.970;2022-08-01T05:35:16;17.00;99.90
52203;DHT22;38173;52.850;6.970;2022-08-01T05:37:42;17.00;99.90
52203;DHT22;38173;52.850;6.970;2022-08-01T05:40:08;17.00;99.90
52203;DHT22;38173;52.850;6.970;2022-08-01T05:42:34;17.00;99.90
52203;DHT22;38173;52.850;6.970;2022-08-01T05:44:59;17.00;99.90
52203;DHT22;38173;52.850;6.970;2022-08-01T05:47:25;17.00;99.90
52203;DHT22;38173;52.850;6.970;2022-08-01T05:49:51;17.00;99.90
52203;DHT22;38173;52.850;6.970;2022-08-01T05:52:17;16.90;99.90
52203;DHT22;38173;52.850;6.970;2022-08-01T05:54:42;16.90;99.90
52203;DHT22;38173;52.850;6.970;2022-08-01T05:57:08;16.90;99.90
52203;DHT22;38173;52.850;6.970;2022-08-01T05:59:34;16.80;99.90
52203;DHT22;38173;52.850;6.970;2022-08-01T06:01:59;16.80;99.90
52203;DHT22;38173;52.850;6.970;2022-08-01T06:04:25;16.80;99.90
52203;DHT22;38173;52.850;6.970;2022-08-01T06:06:51;16.80;99.90
52203;DHT22;38173;52.850;6.970;2022-08-01T06:09:17;16.80;99.90
52203;DHT22;38173;52.850;6.970;2022-08-01T06:11:42;16.80;99.90
52203;DHT22;38173;52.850;6.970;2022-08-01T06:14:08;16.80;99.90
52203;DHT22;38173;52.850;6.970;2022-08-01T06:16:34;16.80;99.90
52203;DHT22;38173;52.850;6.970;2022-08-01T06:18:59;16.80;99.90
52203;DHT22;38173;52.850;6.970;2022-08-01T06:21:25;16.90;99.90
52203;DHT22;38173;52.850;6.970;2022-08-01T06:23:51;16.90;99.90
52203;DHT22;38173;52.850;6.970;2022-08-01T06:26:20;17.00;99.90
52203;DHT22;38173;52.850;6.970;2022-08-01T06:28:46;17.00;99.90
52203;DHT22;38173;52.850;6.970;2022-08-01T06:31:12;17.00;99.90
52203;DHT22;38173;52.850;6.970;2022-08-01T06:33:39;17.00;99.90
52203;DHT22;38173;52.850;6.970;2022-08-01T06:36:05;17.10;99.90
52203;DHT22;38173;52.850;6.970;2022-08-01T06:38:31;17.10;99.90
52203;DHT22;38173;52.850;6.970;2022-08-01T06:40:56;17.20;99.90
52203;DHT22;38173;52.850;6.970;2022-08-01T06:43:22;17.20;99.90
52203;DHT22;38173;52.850;6.970;2022-08-01T06:45:48;17.20;99.90
52203;DHT22;38173;52.850;6.970;2022-08-01T06:48:14;17.30;99.90
52203;DHT22;38173;52.850;6.970;2022-08-01T06:50:40;17.30;99.90
52203;DHT22;38173;52.850;6.970;2022-08-01T06:53:06;17.30;99.90
52203;DHT22;38173;52.850;6.970;2022-08-01T06:55:32;17.30;99.90
52203;DHT22;38173;52.850;6.970;2022-08-01T06:57:57;17.40;99.90
52203;DHT22;38173;52.850;6.970;2022-08-01T07:00:24;17.50;99.90
52203;DHT22;38173;52.850;6.970;2022-08-01T07:02:55;17.50;99.90
52203;DHT22;38173;52.850;6.970;2022-08-01T07:05:21;17.60;99.90
52203;DHT22;38173;52.850;6.970;2022-08-01T07:07:47;17.60;99.90
52203;DHT22;38173;52.850;6.970;2022-08-01T07:10:13;17.60;99.90
52203;DHT22;38173;52.850;6.970;2022-08-01T07:12:39;17.60;99.90
52203;DHT22;38173;52.850;6.970;2022-08-01T07:15:07;17.70;99.90
52203;DHT22;38173;52.850;6.970;2022-08-01T07:17:39;17.70;99.90
52203;DHT22;38173;52.850;6.970;2022-08-01T07:20:06;17.70;99.90
52203;DHT22;38173;52.850;6.970;2022-08-01T07:22:32;17.80;99.90
52203;DHT22;38173;52.850;6.970;2022-08-01T07:24:58;18.00;99.90
52203;DHT22;38173;52.850;6.970;2022-08-01T07:27:24;18.10;99.90
52203;DHT22;38173;52.850;6.970;2022-08-01T07:29:49;18.20;99.90
52203;DHT22;38173;52.850;6.970;2022-08-01T07:32:15;18.20;99.90
52203;DHT22;38173;52.850;6.970;2022-08-01T07:34:41;18.30;99.90
52203;DHT22;38173;52.850;6.970;2022-08-01T07:37:06;18.40;99.90
52203;DHT22;38173;52.850;6.970;2022-08-01T07:39:32;18.40;99.90
52203;DHT22;38173;52.850;6.970;2022-08-01T07:41:58;18.40;99.90
52203;DHT22;38173;52.850;6.970;2022-08-01T07:44:23;18.40;99.90
52203;DHT22;38173;52.850;6.970;2022-08-01T07:46:49;18.40;99.90
52203;DHT22;38173;52.850;6.970;2022-08-01T07:49:15;18.40;99.90
52203;DHT22;38173;52.850;6.970;2022-08-01T07:51:40;18.30;99.90
52203;DHT22;38173;52.850;6.970;2022-08-01T07:54:06;18.30;99.90
52203;DHT22;38173;52.850;6.970;2022-08-01T07:56:33;18.30;99.90
52203;DHT22;38173;52.850;6.970;2022-08-01T07:58:58;18.30;99.90
52203;DHT22;38173;52.850;6.970;2022-08-01T08:01:24;18.40;99.90
52203;DHT22;38173;52.850;6.970;2022-08-01T08:03:50;18.40;99.90
52203;DHT22;38173;52.850;6.970;2022-08-01T08:06:15;18.40;99.90
52203;DHT22;38173;52.850;6.970;2022-08-01T08:08:41;18.40;99.90
52203;DHT22;38173;52.850;6.970;2022-08-01T08:11:07;18.40;99.90
52203;DHT22;38173;52.850;6.970;2022-08-01T08:13:33;18.40;99.90
52203;DHT22;38173;52.850;6.970;2022-08-01T08:15:58;18.50;99.90
52203;DHT22;38173;52.850;6.970;2022-08-01T08:18:25;18.60;99.90
52203;DHT22;38173;52.850;6.970;2022-08-01T08:20:51;18.60;99.90
52203;DHT22;38173;52.850;6.970;2022-08-01T08:23:16;18.60;99.90
52203;DHT22;38173;52.850;6.970;2022-08-01T08:26:01;18.60;99.90
52203;DHT22;38173;52.850;6.970;2022-08-01T08:28:27;18.60;99.90
52203;DHT22;38173;52.850;6.970;2022-08-01T08:30:52;18.50;99.90
52203;DHT22;38173;52.850;6.970;2022-08-01T08:33:20;18.60;99.90
52203;DHT22;38173;52.850;6.970;2022-08-01T08:35:46;18.60;99.90
52203;DHT22;38173;52.850;6.970;2022-08-01T08:38:11;18.60;99.90
52203;DHT22;38173;52.850;6.970;2022-08-01T08:40:37;18.60;99.90
52203;DHT22;38173;52.850;6.970;2022-08-01T08:43:06;18.70;99.90
52203;DHT22;38173;52.850;6.970;2022-08-01T08:45:33;18.70;99.90
52203;DHT22;38173;52.850;6.970;2022-08-01T08:47:59;18.70;99.90
52203;DHT22;38173;52.850;6.970;2022-08-01T08:50:26;18.70;99.90
52203;DHT22;38173;52.850;6.970;2022-08-01T08:52:54;18.80;99.90
52203;DHT22;38173;52.850;6.970;2022-08-01T08:55:20;18.80;99.90
52203;DHT22;38173;52.850;6.970;2022-08-01T08:57:48;18.90;99.90
52203;DHT22;38173;52.850;6.970;2022-08-01T09:00:14;18.90;99.90
52203;DHT22;38173;52.850;6.970;2022-08-01T09:02:46;18.90;99.90
52203;DHT22;38173;52.850;6.970;2022-08-01T09:05:12;18.90;99.90
52203;DHT22;38173;52.850;6.970;2022-08-01T09:07:38;19.00;99.90
52203;DHT22;38173;52.850;6.970;2022-08-01T09:10:05;19.00;99.90
52203;DHT22;38173;52.850;6.970;2022-08-01T09:12:31;19.00;99.90
52203;DHT22;38173;52.850;6.970;2022-08-01T09:14:56;19.00;99.90
52203;DHT22;38173;52.850;6.970;2022-08-01T09:17:22;19.00;99.90
52203;DHT22;38173;52.850;6.970;2022-08-01T09:19:53;19.10;99.90
52203;DHT22;38173;52.850;6.970;2022-08-01T09:22:22;19.10;99.90
52203;DHT22;38173;52.850;6.970;2022-08-01T09:25:07;19.10;99.90
52203;DHT22;38173;52.850;6.970;2022-08-01T09:27:35;19.10;99.90
52203;DHT22;38173;52.850;6.970;2022-08-01T09:32:33;19.20;99.90
52203;DHT22;38173;52.850;6.970;2022-08-01T09:35:22;19.30;99.90
52203;DHT22;38173;52.850;6.970;2022-08-01T09:37:48;19.40;99.90
52203;DHT22;38173;52.850;6.970;2022-08-01T09:40:14;19.50;99.90
52203;DHT22;38173;52.850;6.970;2022-08-01T09:42:40;19.50;99.90
52203;DHT22;38173;52.850;6.970;2022-08-01T09:45:06;19.40;99.90
52203;DHT22;38173;52.850;6.970;2022-08-01T09:47:39;19.40;99.90
52203;DHT22;38173;52.850;6.970;2022-08-01T09:50:05;19.50;99.90
52203;DHT22;38173;52.850;6.970;2022-08-01T09:52:31;19.60;99.90
52203;DHT22;38173;52.850;6.970;2022-08-01T09:55:05;19.70;99.90
52203;DHT22;38173;52.850;6.970;2022-08-01T09:57:31;19.80;99.90
52203;DHT22;38173;52.850;6.970;2022-08-01T09:59:59;19.80;99.90
52203;DHT22;38173;52.850;6.970;2022-08-01T10:02:39;19.80;99.90
52203;DHT22;38173;52.850;6.970;2022-08-01T10:05:07;19.80;99.90
52203;DHT22;38173;52.850;6.970;2022-08-01T10:07:34;19.80;99.90
52203;DHT22;38173;52.850;6.970;2022-08-01T10:10:13;19.90;99.90
52203;DHT22;38173;52.850;6.970;2022-08-01T10:12:43;20.00;99.90
52203;DHT22;38173;52.850;6.970;2022-08-01T10:15:09;20.00;99.90
52203;DHT22;38173;52.850;6.970;2022-08-01T10:17:38;20.00;99.90
52203;DHT22;38173;52.850;6.970;2022-08-01T10:20:04;20.00;99.90
52203;DHT22;38173;52.850;6.970;2022-08-01T10:22:31;20.10;99.90
52203;DHT22;38173;52.850;6.970;2022-08-01T10:25:02;20.30;99.90
52203;DHT22;38173;52.850;6.970;2022-08-01T10:27:29;20.40;99.90
52203;DHT22;38173;52.850;6.970;2022-08-01T10:29:59;20.40;99.90
52203;DHT22;38173;52.850;6.970;2022-08-01T10:32:34;20.30;99.90
52203;DHT22;38173;52.850;6.970;2022-08-01T10:35:07;20.30;99.90
52203;DHT22;38173;52.850;6.970;2022-08-01T10:37:34;20.30;99.90
52203;DHT22;38173;52.850;6.970;2022-08-01T10:40:03;20.30;99.90
52203;DHT22;38173;52.850;6.970;2022-08-01T10:42:32;20.40;99.90
52203;DHT22;38173;52.850;6.970;2022-08-01T10:44:58;20.50;99.90
52203;DHT22;38173;52.850;6.970;2022-08-01T10:47:29;20.70;99.90
52203;DHT22;38173;52.850;6.970;2022-08-01T10:50:15;20.80;99.90
52203;DHT22;38173;52.850;6.970;2022-08-01T10:53:06;20.70;99.90
52203;DHT22;38173;52.850;6.970;2022-08-01T10:58:11;20.40;99.90
52203;DHT22;38173;52.850;6.970;2022-08-01T11:00:37;20.40;99.90
52203;DHT22;38173;52.850;6.970;2022-08-01T11:03:03;20.50;99.90
52203;DHT22;38173;52.850;6.970;2022-08-01T11:05:34;20.60;99.90
52203;DHT22;38173;52.850;6.970;2022-08-01T11:08:10;20.70;99.90
52203;DHT22;38173;52.850;6.970;2022-08-01T11:10:40;21.00;99.90
52203;DHT22;38173;52.850;6.970;2022-08-01T11:13:09;21.10;99.90
52203;DHT22;38173;52.850;6.970;2022-08-01T11:15:37;21.00;99.90
52203;DHT22;38173;52.850;6.970;2022-08-01T11:20:59;20.80;99.90
52203;DHT22;38173;52.850;6.970;2022-08-01T11:23:27;20.90;99.90
52203;DHT22;38173;52.850;6.970;2022-08-01T11:28:23;21.00;99.90
52203;DHT22;38173;52.850;6.970;2022-08-01T11:38:37;21.10;99.90
52203;DHT22;38173;52.850;6.970;2022-08-01T11:44:12;21.10;99.90
52203;DHT22;38173;52.850;6.970;2022-08-01T11:54:49;21.00;99.90
52203;DHT22;38173;52.850;6.970;2022-08-01T11:57:19;21.20;99.90
52203;DHT22;38173;52.850;6.970;2022-08-01T11:59:57;21.30;99.90
52203;DHT22;38173;52.850;6.970;2022-08-01T12:02:27;21.50;99.90
52203;DHT22;38173;52.850;6.970;2022-08-01T12:05:16;21.60;99.90
52203;DHT22;38173;52.850;6.970;2022-08-01T12:07:50;21.70;99.90
52203;DHT22;38173;52.850;6.970;2022-08-01T12:10:21;21.70;99.90
52203;DHT22;38173;52.850;6.970;2022-08-01T12:12:50;21.70;99.90
52203;DHT22;38173;52.850;6.970;2022-08-01T12:15:17;21.80;99.90
52203;DHT22;38173;52.850;6.970;2022-08-01T12:17:44;21.70;99.90
52203;DHT22;38173;52.850;6.970;2022-08-01T12:20:13;21.80;99.90
52203;DHT22;38173;52.850;6.970;2022-08-01T12:22:40;21.90;99.90
52203;DHT22;38173;52.850;6.970;2022-08-01T12:25:08;22.10;99.90
52203;DHT22;38173;52.850;6.970;2022-08-01T12:27:36;22.20;99.90
52203;DHT22;38173;52.850;6.970;2022-08-01T12:30:05;22.40;99.90
52203;DHT22;38173;52.850;6.970;2022-08-01T12:32:33;22.50;99.90
52203;DHT22;38173;52.850;6.970;2022-08-01T12:35:12;22.60;99.90
52203;DHT22;38173;52.850;6.970;2022-08-01T12:37:48;22.80;99.90
52203;DHT22;38173;52.850;6.970;2022-08-01T12:40:18;22.60;99.90
52203;DHT22;38173;52.850;6.970;2022-08-01T12:42:50;22.50;99.90
52203;DHT22;38173;52.850;6.970;2022-08-01T12:45:19;22.40;99.90
52203;DHT22;38173;52.850;6.970;2022-08-01T12:47:46;22.50;99.90
52203;DHT22;38173;52.850;6.970;2022-08-01T12:50:16;22.70;99.90
52203;DHT22;38173;52.850;6.970;2022-08-01T12:52:44;22.80;99.90
52203;DHT22;38173;52.850;6.970;2022-08-01T12:57:37;22.50;99.90
52203;DHT22;38173;52.850;6.970;2022-08-01T13:00:17;22.40;99.90
52203;DHT22;38173;52.850;6.970;2022-08-01T13:02:45;22.20;99.90
52203;DHT22;38173;52.850;6.970;2022-08-01T13:05:11;22.20;99.90
52203;DHT22;38173;52.850;6.970;2022-08-01T13:07:46;22.10;99.90
52203;DHT22;38173;52.850;6.970;2022-08-01T13:10:13;22.20;99.90
52203;DHT22;38173;52.850;6.970;2022-08-01T13:12:41;22.40;99.90
52203;DHT22;38173;52.850;6.970;2022-08-01T13:15:25;22.50;99.90
52203;DHT22;38173;52.850;6.970;2022-08-01T13:17:53;22.90;99.90
52203;DHT22;38173;52.850;6.970;2022-08-01T13:20:30;23.00;99.90
52203;DHT22;38173;52.850;6.970;2022-08-01T13:23:29;23.20;99.90
52203;DHT22;38173;52.850;6.970;2022-08-01T13:25:55;23.50;99.90
52203;DHT22;38173;52.850;6.970;2022-08-01T13:28:25;23.80;99.90
52203;DHT22;38173;52.850;6.970;2022-08-01T13:30:55;23.90;98.50
52203;DHT22;38173;52.850;6.970;2022-08-01T13:33:23;23.90;99.90
52203;DHT22;38173;52.850;6.970;2022-08-01T13:35:50;24.10;99.90
52203;DHT22;38173;52.850;6.970;2022-08-01T13:38:17;24.00;98.10
52203;DHT22;38173;52.850;6.970;2022-08-01T13:40:42;23.90;98.30
52203;DHT22;38173;52.850;6.970;2022-08-01T13:43:08;24.30;98.50
52203;DHT22;38173;52.850;6.970;2022-08-01T13:45:34;24.70;98.60
52203;DHT22;38173;52.850;6.970;2022-08-01T13:48:00;25.10;96.90
52203;DHT22;38173;52.850;6.970;2022-08-01T13:50:26;25.60;91.90
52203;DHT22;38173;52.850;6.970;2022-08-01T13:52:52;25.90;85.90
52203;DHT22;38173;52.850;6.970;2022-08-01T13:55:18;26.20;83.40
52203;DHT22;38173;52.850;6.970;2022-08-01T13:57:43;26.40;91.60
52203;DHT22;38173;52.850;6.970;2022-08-01T14:00:09;26.70;83.00
52203;DHT22;38173;52.850;6.970;2022-08-01T14:02:35;26.90;84.80
52203;DHT22;38173;52.850;6.970;2022-08-01T14:05:01;27.10;76.90
52203;DHT22;38173;52.850;6.970;2022-08-01T14:07:27;26.90;70.60
52203;DHT22;38173;52.850;6.970;2022-08-01T14:09:53;27.00;74.90
52203;DHT22;38173;52.850;6.970;2022-08-01T14:12:19;27.20;78.40
52203;DHT22;38173;52.850;6.970;2022-08-01T14:14:45;27.70;67.90
52203;DHT22;38173;52.850;6.970;2022-08-01T14:17:10;27.60;77.70
52203;DHT22;38173;52.850;6.970;2022-08-01T14:19:36;27.60;67.60
52203;DHT22;38173;52.850;6.970;2022-08-01T14:22:02;27.50;65.80
52203;DHT22;38173;52.850;6.970;2022-08-01T14:24:28;27.60;72.00
52203;DHT22;38173;52.850;6.970;2022-08-01T14:26:53;27.90;74.90
52203;DHT22;38173;52.850;6.970;2022-08-01T14:29:19;27.70;71.40
52203;DHT22;38173;52.850;6.970;2022-08-01T14:31:45;27.60;77.00
52203;DHT22;38173;52.850;6.970;2022-08-01T14:34:11;27.30;71.90
52203;DHT22;38173;52.850;6.970;2022-08-01T14:36:38;26.80;65.50
52203;DHT22;38173;52.850;6.970;2022-08-01T14:39:04;26.40;71.20
52203;DHT22;38173;52.850;6.970;2022-08-01T14:41:30;25.90;69.40
52203;DHT22;38173;52.850;6.970;2022-08-01T14:43:55;25.70;69.40
52203;DHT22;38173;52.850;6.970;2022-08-01T14:46:21;25.70;77.00
52203;DHT22;38173;52.850;6.970;2022-08-01T14:48:47;26.30;90.10
52203;DHT22;38173;52.850;6.970;2022-08-01T14:51:12;27.20;71.80
52203;DHT22;38173;52.850;6.970;2022-08-01T14:53:38;27.60;65.30
52203;DHT22;38173;52.850;6.970;2022-08-01T14:56:05;28.00;65.70
52203;DHT22;38173;52.850;6.970;2022-08-01T14:58:31;27.80;63.40
52203;DHT22;38173;52.850;6.970;2022-08-01T15:00:57;27.60;66.00
52203;DHT22;38173;52.850;6.970;2022-08-01T15:03:23;27.50;61.60
52203;DHT22;38173;52.850;6.970;2022-08-01T15:05:49;27.30;63.90
52203;DHT22;38173;52.850;6.970;2022-08-01T15:08:14;26.80;67.70
52203;DHT22;38173;52.850;6.970;2022-08-01T15:10:40;26.20;66.80
52203;DHT22;38173;52.850;6.970;2022-08-01T15:13:06;25.60;70.20
52203;DHT22;38173;52.850;6.970;2022-08-01T15:15:33;25.20;74.40
52203;DHT22;38173;52.850;6.970;2022-08-01T15:17:58;24.90;77.40
52203;DHT22;38173;52.850;6.970;2022-08-01T15:20:24;24.80;82.40
52203;DHT22;38173;52.850;6.970;2022-08-01T15:22:52;24.80;88.70
52203;DHT22;38173;52.850;6.970;2022-08-01T15:25:18;25.00;85.60
52203;DHT22;38173;52.850;6.970;2022-08-01T15:27:44;25.40;80.90
52203;DHT22;38173;52.850;6.970;2022-08-01T15:30:10;25.60;76.80
52203;DHT22;38173;52.850;6.970;2022-08-01T15:32:36;25.70;74.50
52203;DHT22;38173;52.850;6.970;2022-08-01T15:35:02;25.70;77.60
52203;DHT22;38173;52.850;6.970;2022-08-01T15:37:28;25.60;75.90
52203;DHT22;38173;52.850;6.970;2022-08-01T15:39:53;25.50;74.70
52203;DHT22;38173;52.850;6.970;2022-08-01T15:42:19;25.50;68.50
52203;DHT22;38173;52.850;6.970;2022-08-01T15:44:46;25.60;68.70
52203;DHT22;38173;52.850;6.970;2022-08-01T15:47:11;26.20;65.70
52203;DHT22;38173;52.850;6.970;2022-08-01T15:49:38;27.00;69.90
52203;DHT22;38173;52.850;6.970;2022-08-01T15:52:04;27.70;63.70
52203;DHT22;38173;52.850;6.970;2022-08-01T15:54:31;28.40;59.50
52203;DHT22;38173;52.850;6.970;2022-08-01T15:56:56;29.10;56.80
52203;DHT22;38173;52.850;6.970;2022-08-01T15:59:22;29.60;56.70
52203;DHT22;38173;52.850;6.970;2022-08-01T16:01:48;30.10;60.30
52203;DHT22;38173;52.850;6.970;2022-08-01T16:04:15;30.40;55.60
52203;DHT22;38173;52.850;6.970;2022-08-01T16:06:42;30.50;55.30
52203;DHT22;38173;52.850;6.970;2022-08-01T16:09:08;30.60;52.80
52203;DHT22;38173;52.850;6.970;2022-08-01T16:11:34;31.00;52.70
52203;DHT22;38173;52.850;6.970;2022-08-01T16:14:00;31.20;53.80
52203;DHT22;38173;52.850;6.970;2022-08-01T16:16:26;31.60;54.40